Time;durP1;ratioP1;P1;durP2;ratioP2;P2;SDS_P1;SDS_P2;PMS_P1;PMS_P2;Temp;Humidity;BMP_temperature;BMP_pressure;BME280_temperature;BME280_humidity;BME280_pressure;Samples;Min_cycle;Max_cycle;Signal;HPM_P1;HPM_P2
2021/07/17 00:00:17;;;;;;;20.41;9.99;;;;;;;15.14;89.24;99971.06;2017184;80;20306;-76
2021/07/17 00:03:20;;;;;;;13.29;10.95;;;;;;;15.14;89.24;99963.22;2020997;80;20213;-76
2021/07/17 00:06:24;;;;;;;21.38;11.36;;;;;;;15.11;89.16;99969.34;2018649;80;20179;-77
2021/07/17 00:10:06;;;;;;;13.99;10.95;;;;;;;15.07;89.03;99967.63;2017420;80;20259;-77
2021/07/17 00:13:13;;;;;;;14.55;10.95;;;;;;;15.05;89.41;99973.78;2018043;80;20255;-77
2021/07/17 00:16:17;;;;;;;16.51;10.80;;;;;;;15.04;89.58;99969.44;2017162;77;20203;-77
2021/07/17 00:19:20;;;;;;;16.75;11.51;;;;;;;15.03;89.58;99968.56;2017938;80;20235;-76
2021/07/17 00:22:23;;;;;;;17.20;11.63;;;;;;;15.01;89.52;99977.31;2018254;80;20848;-76
2021/07/17 00:25:27;;;;;;;18.04;11.43;;;;;;;14.96;89.58;99973.91;2016720;80;20569;-77
2021/07/17 00:28:31;;;;;;;16.09;11.50;;;;;;;14.91;89.67;99973.97;2017878;80;20211;-76
2021/07/17 00:31:34;;;;;;;14.39;11.46;;;;;;;14.91;89.91;99980.97;2016377;80;21240;-76
2021/07/17 00:34:37;;;;;;;15.13;11.24;;;;;;;14.89;89.95;99974.84;2017265;80;20211;-77
2021/07/17 00:37:40;;;;;;;17.24;11.64;;;;;;;14.88;89.78;99987.06;2017178;80;20294;-76
2021/07/17 00:40:43;;;;;;;14.16;10.70;;;;;;;14.89;89.55;99970.50;2021062;80;20195;-76
2021/07/17 00:43:52;;;;;;;16.59;11.40;;;;;;;14.87;89.66;99979.25;2017537;80;20365;-77
2021/07/17 00:46:58;;;;;;;18.63;12.16;;;;;;;14.80;89.90;99968.00;2017901;77;22428;-76
2021/07/17 00:50:03;;;;;;;18.09;12.38;;;;;;;14.78;89.96;99967.16;2023327;80;20182;-76
2021/07/17 00:53:06;;;;;;;14.77;11.70;;;;;;;14.76;89.89;99968.94;2023204;80;20205;-76
2021/07/17 00:56:23;;;;;;;17.13;11.56;;;;;;;14.73;89.94;99976.81;2023365;80;21038;-77
2021/07/17 00:59:31;;;;;;;17.90;12.32;;;;;;;14.70;89.83;99984.66;2023153;80;20210;-76
2021/07/17 01:02:47;;;;;;;14.69;11.76;;;;;;;14.65;89.81;99986.47;2021399;78;22877;-77
2021/07/17 01:05:50;;;;;;;15.26;11.44;;;;;;;14.61;90.08;99985.66;2022969;80;20163;-77
2021/07/17 01:08:53;;;;;;;16.60;11.19;;;;;;;14.61;90.09;99982.19;2022428;80;20273;-77
2021/07/17 01:11:58;;;;;;;13.64;10.99;;;;;;;14.62;90.02;99983.91;2022486;80;20167;-77
2021/07/17 01:15:03;;;;;;;13.31;11.60;;;;;;;14.55;89.89;99983.13;2022104;80;20277;-77
2021/07/17 01:18:08;;;;;;;22.11;11.45;;;;;;;14.54;89.74;99981.38;2018592;77;22632;-76
2021/07/17 01:21:30;;;;;;;15.71;11.94;;;;;;;14.48;89.70;99971.00;2022962;80;20742;-77
2021/07/17 01:24:33;;;;;;;15.44;11.30;;;;;;;14.44;89.70;99975.38;2022677;80;20221;-77
2021/07/17 01:27:53;;;;;;;19.45;12.13;;;;;;;14.40;89.70;99978.03;2023066;80;20313;-77
2021/07/17 01:31:10;;;;;;;16.73;11.00;;;;;;;14.38;89.74;99983.28;2008622;78;20193;-77
2021/07/17 01:34:13;;;;;;;13.52;10.63;;;;;;;14.31;89.90;99980.72;2008622;80;20259;-78
2021/07/17 01:38:02;;;;;;;14.15;10.57;;;;;;;14.26;90.25;99979.91;2017373;80;20223;-76
2021/07/17 01:41:30;;;;;;;12.56;10.18;;;;;;;14.25;90.53;99983.41;2016694;80;20314;-78
2021/07/17 01:44:42;;;;;;;14.54;10.69;;;;;;;14.21;90.56;99982.56;2017347;80;20384;-77
2021/07/17 01:47:47;;;;;;;13.11;10.81;;;;;;;14.20;90.49;99996.50;2017551;77;21290;-78
2021/07/17 01:50:50;;;;;;;14.36;10.79;;;;;;;14.17;90.20;99986.06;2017743;80;20199;-79
2021/07/17 01:53:56;;;;;;;15.45;11.00;;;;;;;14.13;90.42;99982.63;2017901;80;20188;-78
2021/07/17 01:57:05;;;;;;;14.85;11.04;;;;;;;14.12;90.30;99972.19;2017843;80;20211;-78
2021/07/17 02:00:09;;;;;;;18.32;11.04;;;;;;;14.10;90.27;99968.72;2017022;80;20176;-77
2021/07/17 02:03:12;;;;;;;20.58;11.54;;;;;;;14.07;90.30;99950.50;2019627;77;20954;-77
2021/07/17 02:06:24;;;;;;;11.86;10.65;;;;;;;14.01;90.30;99956.66;2019840;80;20299;-78
2021/07/17 02:09:45;;;;;;;12.93;10.30;;;;;;;13.99;90.57;99952.28;2018937;80;20209;-77
2021/07/17 02:17:25;;;;;;;16.92;10.66;;;;;;;13.91;90.90;99961.06;2019915;77;22273;-77
2021/07/17 02:20:31;;;;;;;17.41;10.94;;;;;;;13.87;91.07;99956.75;2019330;80;20172;-77
2021/07/17 02:23:35;;;;;;;15.09;10.99;;;;;;;13.86;91.29;99955.03;2019312;80;20201;-78
2021/07/17 02:26:42;;;;;;;12.82;10.11;;;;;;;13.86;91.49;99965.47;2018933;80;20285;-77
2021/07/17 02:29:46;;;;;;;13.48;9.35;;;;;;;13.88;91.21;99963.72;2018742;80;20339;-76
2021/07/17 02:32:49;;;;;;;14.05;10.50;;;;;;;13.88;90.97;99960.25;2018288;78;21918;-76
2021/07/17 02:35:51;;;;;;;13.84;10.40;;;;;;;13.86;90.81;99951.56;2023979;80;20311;-77
2021/07/17 02:39:10;;;;;;;;;;;;;;;13.83;91.08;99955.06;2024809;80;20278;-77
2021/07/17 02:42:14;;;;;;;16.88;9.52;;;;;;;13.83;91.21;99962.91;2024848;80;20574;-76
2021/07/17 02:45:17;;;;;;;14.91;10.59;;;;;;;13.82;91.33;99955.94;2025247;80;20179;-76
2021/07/17 02:48:19;;;;;;;13.65;11.27;;;;;;;13.82;91.09;99948.13;2023914;77;21750;-76
2021/07/17 02:51:22;;;;;;;15.21;10.51;;;;;;;13.81;91.21;99953.31;2024653;80;20229;-77
2021/07/17 02:54:25;;;;;;;12.27;10.06;;;;;;;13.81;91.44;99954.19;2023954;80;20277;-77
2021/07/17 02:57:28;;;;;;;16.56;9.66;;;;;;;13.84;91.73;99961.16;2020390;80;20303;-78
2021/07/17 03:00:38;;;;;;;13.90;9.61;;;;;;;13.88;91.74;99968.94;2023316;77;21209;-76
2021/07/17 03:03:41;;;;;;;15.24;11.05;;;;;;;13.93;91.96;99965.41;2023324;80;20246;-77
2021/07/17 03:06:44;;;;;;;12.32;11.13;;;;;;;13.98;91.70;99964.47;2024187;80;20188;-76
2021/07/17 03:09:54;;;;;;;15.56;11.14;;;;;;;14.06;91.68;99961.81;2022833;80;20222;-76
2021/07/17 03:13:23;;;;;;;13.30;10.19;;;;;;;14.12;91.75;99956.53;2022575;80;20342;-78
2021/07/17 03:16:29;;;;;;;15.06;10.88;;;;;;;14.14;91.60;99947.78;2021403;80;22234;-75
2021/07/17 03:19:32;;;;;;;17.70;11.04;;;;;;;14.15;91.72;99939.06;2022920;80;20299;-77
2021/07/17 03:22:35;;;;;;;11.85;9.27;;;;;;;14.18;91.68;99936.47;2023269;80;20179;-77
2021/07/17 03:25:38;;;;;;;18.39;10.94;;;;;;;14.20;91.76;99946.88;2022855;80;20775;-76
2021/07/17 03:28:45;;;;;;;14.56;10.81;;;;;;;14.23;92.05;99935.53;2023149;80;20382;-77
2021/07/17 03:31:48;;;;;;;14.65;11.73;;;;;;;14.25;92.12;99934.63;2021442;77;21933;-77
2021/07/17 03:34:51;;;;;;;13.14;10.32;;;;;;;14.27;91.85;99940.69;2023265;80;20178;-77
2021/07/17 03:37:53;;;;;;;12.32;11.04;;;;;;;14.29;91.66;99935.47;2022673;80;20238;-76
2021/07/17 03:40:56;;;;;;;13.66;11.06;;;;;;;14.30;92.02;99938.06;2023023;80;20301;-77
2021/07/17 03:43:59;;;;;;;12.82;10.60;;;;;;;14.35;92.39;99932.78;2023255;80;20203;-77
2021/07/17 03:47:01;;;;;;;13.34;10.36;;;;;;;14.39;92.46;99931.88;2021519;77;20214;-77
2021/07/17 03:50:04;;;;;;;13.90;10.82;;;;;;;14.40;92.39;99939.69;2022944;80;20216;-76
2021/07/17 03:53:07;;;;;;;13.84;11.59;;;;;;;14.44;92.28;99944.03;2022407;80;20294;-77
2021/07/17 03:56:10;;;;;;;14.54;11.39;;;;;;;14.46;92.39;99939.66;2022999;80;20200;-76
2021/07/17 03:59:13;;;;;;;16.64;11.79;;;;;;;14.47;92.45;99935.28;2023528;80;20182;-76
2021/07/17 04:02:15;;;;;;;15.86;11.76;;;;;;;14.49;92.40;99934.38;2021891;77;21646;-77
2021/07/17 04:05:19;;;;;;;16.58;11.93;;;;;;;14.51;92.34;99936.97;2022872;80;20179;-76
2021/07/17 04:08:22;;;;;;;16.64;11.95;;;;;;;14.55;92.20;99936.09;2022649;80;20315;-77
2021/07/17 04:11:24;;;;;;;19.64;11.19;;;;;;;14.60;92.41;99936.88;2022269;80;20167;-76
2021/07/17 04:14:27;;;;;;;13.90;11.82;;;;;;;14.62;92.30;99937.72;2022551;80;20232;-76
2021/07/17 04:17:30;;;;;;;16.45;11.64;;;;;;;14.65;92.35;99948.13;2021839;77;20227;-77
2021/07/17 04:20:32;;;;;;;22.69;14.34;;;;;;;14.71;92.39;99949.81;2022876;80;20183;-76
2021/07/17 04:23:35;;;;;;;17.92;12.16;;;;;;;14.77;92.56;99947.13;2022845;80;20641;-76
2021/07/17 04:26:37;;;;;;;16.76;11.68;;;;;;;14.82;92.57;99953.16;2022997;80;20223;-77
2021/07/17 04:29:41;;;;;;;17.01;11.06;;;;;;;14.80;92.53;99958.41;2022418;80;20175;-76
2021/07/17 04:32:44;;;;;;;18.38;11.80;;;;;;;14.81;92.50;99956.66;2021443;80;20853;-77
2021/07/17 04:35:47;;;;;;;16.04;11.26;;;;;;;14.81;92.58;99960.16;2022403;80;20227;-77
2021/07/17 04:38:49;;;;;;;20.75;11.75;;;;;;;14.81;92.34;99954.91;2022583;80;20188;-77
2021/07/17 04:41:52;;;;;;;17.81;11.27;;;;;;;14.77;92.48;99961.06;2023033;80;20167;-77
2021/07/17 04:44:56;;;;;;;21.63;12.44;;;;;;;14.78;92.77;99962.81;2022652;80;20191;-77
2021/07/17 04:48:03;;;;;;;18.46;12.01;;;;;;;14.77;92.88;99953.22;2022803;77;24244;-76
2021/07/17 04:51:06;;;;;;;20.55;11.89;;;;;;;14.80;93.12;99953.19;2023177;80;20191;-76
2021/07/17 04:54:09;;;;;;;21.15;11.71;;;;;;;14.85;93.19;99955.72;2022655;80;20209;-76
2021/07/17 04:57:12;;;;;;;19.02;12.34;;;;;;;14.88;93.37;99962.66;2022694;80;20219;-77
2021/07/17 05:00:15;;;;;;;20.50;12.96;;;;;;;14.95;93.55;99959.97;2022074;80;20629;-77
2021/07/17 05:03:18;;;;;;;15.80;12.16;;;;;;;15.04;93.63;99978.16;2018962;80;20234;-77
2021/07/17 05:06:21;;;;;;;16.96;12.16;;;;;;;15.13;93.58;99971.06;2017871;80;20249;-77
2021/07/17 05:09:24;;;;;;;22.64;12.40;;;;;;;15.23;93.44;99977.91;2017247;80;20274;-76
2021/07/17 05:12:26;;;;;;;18.79;12.11;;;;;;;15.30;92.91;99975.19;2017635;80;20657;-77
2021/07/17 05:15:29;;;;;;;18.56;11.13;;;;;;;15.40;92.66;99975.91;2017081;78;21001;-76
2021/07/17 05:18:32;;;;;;;17.31;12.15;;;;;;;15.49;92.64;99981.03;2023421;80;20224;-76
2021/07/17 05:21:36;;;;;;;17.49;10.86;;;;;;;15.54;92.59;99971.34;2023379;80;20213;-77
2021/07/17 05:24:40;;;;;;;16.73;12.26;;;;;;;15.63;92.55;99973.00;2023073;80;21077;-77
2021/07/17 05:27:43;;;;;;;17.70;11.36;;;;;;;15.75;92.48;99974.53;2023847;80;20268;-76
2021/07/17 05:30:46;;;;;;;19.84;11.70;;;;;;;15.86;92.38;99975.25;2022180;77;20959;-76
2021/07/17 05:33:48;;;;;;;22.00;11.21;;;;;;;15.95;92.05;99967.22;2023956;80;20200;-79
2021/07/17 05:36:51;;;;;;;16.95;10.88;;;;;;;16.05;91.92;99976.66;2024184;80;20171;-77
2021/07/17 05:39:54;;;;;;;18.41;11.20;;;;;;;16.18;91.67;99972.94;2023300;80;20179;-77
2021/07/17 05:42:57;;;;;;;16.23;10.94;;;;;;;16.30;91.25;99975.31;2024105;79;20240;-77
2021/07/17 05:45:59;;;;;;;21.90;11.13;;;;;;;16.41;90.87;99979.50;2023502;80;20230;-77
2021/07/17 05:49:02;;;;;;;13.13;10.48;;;;;;;16.51;90.59;99988.91;2023094;77;22470;-77
2021/07/17 05:52:05;;;;;;;15.61;10.73;;;;;;;16.60;89.85;99987.00;2024068;80;20175;-77
2021/07/17 05:55:08;;;;;;;20.66;11.44;;;;;;;16.70;89.07;99992.97;2024191;80;20244;-77
2021/07/17 05:58:11;;;;;;;15.57;11.04;;;;;;;16.80;88.44;99993.63;2023380;80;20277;-77
2021/07/17 06:01:13;;;;;;;18.11;11.27;;;;;;;16.87;88.07;99996.09;2023058;80;20175;-77
2021/07/17 06:04:16;;;;;;;19.74;10.96;;;;;;;16.93;87.55;99982.00;2023652;80;20803;-76
2021/07/17 06:07:19;;;;;;;18.80;11.04;;;;;;;17.00;86.87;99983.59;2023755;80;20221;-76
2021/07/17 06:10:22;;;;;;;16.64;10.56;;;;;;;17.08;86.43;99983.44;2022931;80;20289;-77
2021/07/17 06:13:24;;;;;;;13.85;10.73;;;;;;;17.20;86.23;99977.91;2023489;80;20532;-76
2021/07/17 06:16:34;;;;;;;17.36;10.41;;;;;;;17.29;86.03;99982.97;2021558;80;21175;-76
2021/07/17 06:19:41;;;;;;;16.61;10.89;;;;;;;17.38;85.36;99988.00;2022727;80;20305;-76
2021/07/17 06:22:44;;;;;;;16.64;10.93;;;;;;;17.50;84.99;99984.25;2022439;80;20175;-77
2021/07/17 06:25:46;;;;;;;14.19;10.26;;;;;;;17.58;83.70;99990.16;2023473;80;20263;-77
2021/07/17 06:28:49;;;;;;;14.00;10.51;;;;;;;17.72;83.27;99988.13;2024047;80;20224;-76
2021/07/17 06:31:51;;;;;;;16.65;10.23;;;;;;;17.85;82.99;99988.69;2021375;79;24525;-77
2021/07/17 06:34:55;;;;;;;12.84;9.48;;;;;;;17.98;82.94;99984.88;2024446;80;20179;-77
2021/07/17 06:37:58;;;;;;;11.86;9.82;;;;;;;18.09;81.83;99995.94;2024059;80;20174;-77
2021/07/17 06:41:01;;;;;;;13.01;8.96;;;;;;;18.20;81.25;100000.94;2023027;80;20242;-76
2021/07/17 06:44:04;;;;;;;11.21;7.96;;;;;;;18.29;80.44;99995.44;2023865;80;20191;-77
2021/07/17 06:47:07;;;;;;;9.86;8.02;;;;;;;18.40;80.65;99996.03;2022336;77;23173;-76
2021/07/17 06:50:11;;;;;;;8.61;7.43;;;;;;;18.47;80.00;99995.84;2022981;80;20179;-77
2021/07/17 06:53:15;;;;;;;12.07;8.15;;;;;;;18.54;79.43;99997.44;2024155;80;20283;-79
2021/07/17 06:56:18;;;;;;;10.91;8.27;;;;;;;18.62;79.33;100014.72;2025847;80;20223;-78
2021/07/17 06:59:20;;;;;;;8.88;7.85;;;;;;;18.66;78.82;100010.25;2023928;80;20585;-78
2021/07/17 07:02:24;;;;;;;10.54;7.76;;;;;;;18.67;78.87;100006.72;2024480;76;41877;-78
2021/07/17 07:05:26;;;;;;;8.63;7.06;;;;;;;18.71;79.01;100018.91;2025891;80;20240;-78
2021/07/17 07:08:30;;;;;;;10.77;6.96;;;;;;;18.77;79.08;100013.47;2025967;80;20675;-78
2021/07/17 07:11:32;;;;;;;7.32;6.63;;;;;;;18.82;78.37;100015.97;2024388;80;20163;-78
2021/07/17 07:14:35;;;;;;;7.03;5.66;;;;;;;18.85;78.02;100016.75;2025271;80;20266;-83
2021/07/17 07:17:40;;;;;;;7.55;5.86;;;;;;;18.91;78.38;100010.47;2025794;77;22331;-80
2021/07/17 07:20:43;;;;;;;8.84;5.85;;;;;;;19.00;77.97;100016.31;2026123;80;20193;-80
2021/07/17 07:23:45;;;;;;;7.36;5.26;;;;;;;19.10;77.42;100018.69;2023603;80;20668;-79
2021/07/17 07:26:48;;;;;;;4.65;4.24;;;;;;;19.14;76.89;100026.44;2025510;80;20187;-79
2021/07/17 07:29:51;;;;;;;7.68;4.22;;;;;;;19.14;76.31;100015.06;2026565;80;20311;-81
2021/07/17 07:32:53;;;;;;;6.16;3.94;;;;;;;19.12;75.40;100011.59;2026462;77;21714;-81
2021/07/17 07:35:56;;;;;;;4.19;3.79;;;;;;;19.12;75.92;100015.09;2028168;80;20291;-81
2021/07/17 07:38:59;;;;;;;5.86;4.20;;;;;;;19.16;75.61;100007.97;2025221;80;20218;-78
2021/07/17 07:42:03;;;;;;;4.32;3.22;;;;;;;19.26;75.68;100009.44;2029179;80;20171;-78
2021/07/17 07:45:06;;;;;;;6.15;3.86;;;;;;;19.36;74.99;100015.25;2028600;80;20815;-80
2021/07/17 07:48:09;;;;;;;4.71;3.26;;;;;;;19.39;74.55;100017.78;2024786;78;21033;-79
2021/07/17 07:51:12;;;;;;;4.39;3.28;;;;;;;19.47;73.48;100015.81;2025207;80;20193;-79
2021/07/17 07:54:14;;;;;;;4.90;3.51;;;;;;;19.62;73.85;100018.00;2025708;80;20719;-78
2021/07/17 07:57:20;;;;;;;4.53;3.76;;;;;;;19.82;73.34;100007.69;2025318;80;20175;-79
2021/07/17 08:00:23;;;;;;;5.47;3.71;;;;;;;20.02;72.68;100014.94;2024425;77;22734;-78
2021/07/17 08:03:27;;;;;;;4.70;3.64;;;;;;;20.11;71.76;100027.84;2026233;80;20191;-78
2021/07/17 08:06:30;;;;;;;4.82;4.30;;;;;;;20.10;71.75;100030.50;2025539;80;20178;-79
2021/07/17 08:09:33;;;;;;;6.51;4.80;;;;;;;20.08;71.51;100040.25;2023847;80;20397;-78
2021/07/17 08:12:36;;;;;;;7.80;5.54;;;;;;;20.04;71.57;100044.75;2024261;80;20195;-77
2021/07/17 08:15:41;;;;;;;7.16;4.66;;;;;;;20.04;71.64;100044.75;2026076;80;20171;-77
2021/07/17 08:18:44;;;;;;;6.06;4.47;;;;;;;20.01;71.44;100038.72;2024916;77;23224;-78
2021/07/17 08:21:46;;;;;;;4.45;3.26;;;;;;;19.98;72.00;100044.97;2026174;80;20220;-81
2021/07/17 08:24:49;;;;;;;7.05;3.53;;;;;;;19.92;71.17;100043.38;2033079;69;20282;-78
2021/07/17 08:27:52;;;;;;;3.63;3.33;;;;;;;19.92;71.35;100046.00;2033544;79;20655;-79
2021/07/17 08:30:54;;;;;;;3.99;3.55;;;;;;;19.88;71.79;100048.78;2029152;77;20498;-76
2021/07/17 08:33:57;;;;;;;6.47;3.81;;;;;;;19.85;71.96;100052.41;2028787;79;20210;-76
2021/07/17 08:36:59;;;;;;;4.78;4.04;;;;;;;19.80;72.13;100053.47;2031875;80;20194;-78
2021/07/17 08:40:07;;;;;;;4.56;4.01;;;;;;;19.75;72.26;100058.00;2032558;79;20651;-78
2021/07/17 08:51:37;;;;;;;6.86;4.72;;;;;;;19.62;72.37;100054.91;2039311;69;20171;-83
2021/07/17 08:54:40;;;;;;;5.97;4.74;;;;;;;19.63;73.10;100055.75;2029767;80;20239;-83
2021/07/17 08:57:43;;;;;;;6.96;4.93;;;;;;;19.65;73.23;100053.94;2042167;80;20178;-81
2021/07/17 09:00:46;;;;;;;7.16;5.10;;;;;;;19.66;73.72;100061.78;2031463;77;21251;-80
2021/07/17 09:03:50;;;;;;;6.74;4.91;;;;;;;19.67;73.21;100060.88;2029189;80;20187;-81
2021/07/17 09:06:53;;;;;;;8.38;4.39;;;;;;;19.66;72.74;100066.19;2030144;80;20166;-80
2021/07/17 09:09:56;;;;;;;8.96;5.74;;;;;;;19.70;73.07;100063.41;2030943;80;20251;-79
2021/07/17 09:13:20;;;;;;;7.76;5.03;;;;;;;19.72;73.04;100055.44;2027831;79;20219;-81
2021/07/17 09:16:30;;;;;;;7.01;5.60;;;;;;;19.78;73.17;100053.50;2028044;80;20963;-76
2021/07/17 09:19:33;;;;;;;7.39;5.47;;;;;;;19.88;72.95;100054.06;2025679;77;22686;-80
2021/07/17 09:22:38;;;;;;;8.51;5.61;;;;;;;19.96;72.66;100049.44;2029539;80;20313;-79
2021/07/17 09:25:42;;;;;;;7.45;5.47;;;;;;;19.97;72.28;100052.94;2025967;80;20171;-78
2021/07/17 09:28:54;;;;;;;6.82;5.36;;;;;;;20.04;72.45;100049.16;2026172;80;20229;-78
2021/07/17 09:31:57;;;;;;;7.03;5.10;;;;;;;20.16;72.52;100036.44;2025063;77;22443;-78
2021/07/17 09:35:19;;;;;;;6.74;5.63;;;;;;;20.28;72.29;100043.06;2026659;80;20187;-77
2021/07/17 09:38:25;;;;;;;7.29;6.06;;;;;;;20.33;71.43;100030.59;2025188;80;20200;-77
2021/07/17 09:41:28;;;;;;;9.18;5.55;;;;;;;20.40;71.25;100026.84;2026791;80;20264;-82
2021/07/17 09:44:33;;;;;;;9.60;5.57;;;;;;;20.51;71.26;100016.81;2037185;80;20171;-81
2021/07/17 09:47:36;;;;;;;5.81;4.82;;;;;;;20.71;70.64;100018.75;2027741;77;21646;-76
2021/07/17 09:50:39;;;;;;;5.84;5.26;;;;;;;20.92;70.46;100019.75;2032424;80;20200;-82
2021/07/17 09:53:47;;;;;;;6.07;5.40;;;;;;;21.20;70.46;100005.53;2025586;80;20234;-78
2021/07/17 09:57:00;;;;;;;6.53;5.64;;;;;;;21.45;69.13;100002.81;2024864;80;20195;-79
2021/07/17 10:00:06;;;;;;;6.82;5.66;;;;;;;21.65;68.24;99997.59;2025503;80;20196;-77
2021/07/17 10:03:46;;;;;;;5.80;5.24;;;;;;;21.89;66.76;100004.53;2023441;80;20291;-77
2021/07/17 10:07:00;;;;;;;7.57;5.11;;;;;;;22.07;65.59;100002.94;2017465;80;20280;-77
2021/07/17 10:10:06;;;;;;;6.18;5.55;;;;;;;22.35;65.86;99993.84;2018420;80;20209;-77
2021/07/17 10:13:09;;;;;;;6.25;5.00;;;;;;;22.42;63.92;99998.81;2014472;80;21159;-77
2021/07/17 10:16:15;;;;;;;6.00;5.44;;;;;;;22.54;64.26;99994.78;2017264;80;20187;-77
2021/07/17 10:19:19;;;;;;;7.35;5.30;;;;;;;22.44;63.75;100002.28;2016541;77;28278;-77
2021/07/17 10:22:25;;;;;;;7.53;5.40;;;;;;;22.38;63.57;99996.34;2017085;80;20205;-77
2021/07/17 10:25:28;;;;;;;6.20;5.00;;;;;;;22.27;63.17;99988.91;2017814;80;21153;-77
2021/07/17 10:28:32;;;;;;;5.05;4.18;;;;;;;22.35;64.66;99991.22;2019297;80;20172;-77
2021/07/17 10:31:36;;;;;;;7.91;4.57;;;;;;;22.42;64.58;99987.34;2017424;77;21871;-77
2021/07/17 10:34:39;;;;;;;5.41;4.85;;;;;;;22.50;64.26;99988.75;2019685;80;20195;-77
2021/07/17 10:37:47;;;;;;;5.60;5.13;;;;;;;22.56;64.66;99995.56;2018778;80;20268;-77
2021/07/17 10:40:50;;;;;;;;;;;;;;;22.56;63.99;99992.91;2020279;80;20192;-77
2021/07/17 10:43:54;;;;;;;5.45;4.26;;;;;;;22.50;64.10;99991.41;2020640;80;20139;-77
2021/07/17 10:47:06;;;;;;;5.65;4.21;;;;;;;22.57;64.49;99997.28;2021560;77;20171;-77
2021/07/17 10:50:13;;;;;;;4.70;4.30;;;;;;;22.73;64.69;99982.44;2023869;80;20163;-77
2021/07/17 10:53:45;;;;;;;6.18;5.09;;;;;;;23.03;64.45;99989.97;2024039;80;21079;-78
2021/07/17 10:56:48;;;;;;;5.05;4.04;;;;;;;23.17;61.77;99984.91;2032168;80;20195;-81
2021/07/17 10:59:51;;;;;;;6.13;4.35;;;;;;;23.58;61.82;99982.94;2031007;80;20199;-81
2021/07/17 11:03:14;;;;;;;5.76;5.03;;;;;;;23.95;61.46;99979.34;2028003;77;22902;-80
2021/07/17 11:06:33;;;;;;;6.19;5.00;;;;;;;24.01;60.88;99984.34;2030452;80;20393;-80
2021/07/17 11:09:57;;;;;;;7.22;5.82;;;;;;;23.96;60.80;99980.22;2029046;80;20228;-81
2021/07/17 11:12:59;;;;;;;11.49;6.45;;;;;;;23.86;60.41;99971.84;2031976;79;20185;-81
2021/07/17 11:16:03;;;;;;;9.40;5.70;;;;;;;23.86;61.66;99974.50;2028509;80;20199;-80
2021/07/17 11:19:12;;;;;;;10.76;6.75;;;;;;;23.97;62.06;99972.16;2029499;77;20252;-80
2021/07/17 11:22:14;;;;;;;11.05;8.24;;;;;;;23.96;61.47;99977.56;2030071;80;20163;-81
2021/07/17 11:25:17;;;;;;;14.34;7.70;;;;;;;23.77;60.85;99970.50;2027547;80;20244;-80
2021/07/17 11:28:45;;;;;;;10.79;8.45;;;;;;;23.70;61.51;99982.38;2031421;80;20254;-82
2021/07/17 11:31:50;;;;;;;12.10;8.45;;;;;;;23.75;62.45;99971.53;2030511;77;21448;-81
2021/07/17 11:34:54;;;;;;;15.71;8.44;;;;;;;23.76;62.50;99970.59;2029733;80;20190;-81
2021/07/17 11:37:56;;;;;;;10.32;7.97;;;;;;;23.96;63.19;99965.16;2023391;80;20305;-75
2021/07/17 11:40:59;;;;;;;11.54;8.73;;;;;;;24.16;62.08;99956.19;2021980;80;20196;-75
2021/07/17 11:44:03;;;;;;;13.54;9.21;;;;;;;24.20;61.05;99959.53;2022372;79;20725;-75
2021/07/17 11:47:12;;;;;;;13.00;9.02;;;;;;;24.33;60.84;99960.66;2022984;77;38203;-75
2021/07/17 11:50:14;;;;;;;10.57;8.90;;;;;;;24.45;61.71;99949.41;2022432;80;20543;-75
2021/07/17 11:53:19;;;;;;;13.21;9.95;;;;;;;24.63;60.09;99951.09;2022183;80;20225;-76
2021/07/17 11:56:22;;;;;;;12.80;9.35;;;;;;;24.89;60.50;99952.31;2022981;80;20241;-76
2021/07/17 11:59:24;;;;;;;13.31;9.69;;;;;;;25.37;59.30;99944.41;2022473;80;20218;-75
2021/07/17 12:02:29;;;;;;;11.32;8.91;;;;;;;25.40;56.68;99947.75;2017339;77;20604;-76
2021/07/17 12:05:34;;;;;;;11.23;9.56;;;;;;;25.46;56.91;99944.75;2016714;80;20234;-75
2021/07/17 12:08:37;;;;;;;10.41;9.18;;;;;;;25.65;57.50;99941.03;2017077;80;20216;-75
2021/07/17 12:11:39;;;;;;;11.59;8.84;;;;;;;26.09;57.31;99942.00;2016863;80;20203;-75
2021/07/17 12:14:44;;;;;;;9.34;8.43;;;;;;;26.40;54.20;99937.53;2016528;80;20287;-75
2021/07/17 12:17:59;;;;;;;12.23;8.75;;;;;;;26.95;56.53;99929.63;2010329;78;1000115;-76
2021/07/17 12:21:02;;;;;;;11.35;7.93;;;;;;;27.27;54.28;99937.38;2022003;80;20191;-76
2021/07/17 12:24:06;;;;;;;9.38;8.00;;;;;;;27.05;53.59;99936.09;2022718;80;21092;-77
2021/07/17 12:27:11;;;;;;;12.94;7.57;;;;;;;27.06;53.30;99936.94;2022983;80;20307;-76
2021/07/17 12:30:16;;;;;;;9.38;8.31;;;;;;;27.04;53.47;99929.06;2021970;80;20324;-76
2021/07/17 12:33:33;;;;;;;9.01;7.38;;;;;;;26.84;53.11;99937.41;2022452;80;20294;-76
2021/07/17 12:36:41;;;;;;;9.61;7.36;;;;;;;27.04;52.86;99936.19;2022320;80;20175;-76
2021/07/17 12:39:44;;;;;;;8.88;6.75;;;;;;;27.34;51.62;99936.03;2021961;80;20297;-76
2021/07/17 12:42:50;;;;;;;10.32;7.26;;;;;;;27.58;51.86;99934.44;2022549;80;21191;-76
2021/07/17 12:45:58;;;;;;;9.27;7.36;;;;;;;27.35;51.59;99935.09;2021174;77;20359;-78
2021/07/17 12:49:10;;;;;;;8.10;7.11;;;;;;;27.29;52.12;99932.78;2023346;80;20195;-82
2021/07/17 12:52:16;;;;;;;8.66;7.82;;;;;;;27.39;51.39;99925.91;2022347;80;20249;-78
2021/07/17 12:55:23;;;;;;;7.89;7.09;;;;;;;27.43;50.79;99930.09;2022521;80;20378;-80
2021/07/17 12:58:27;;;;;;;9.11;8.15;;;;;;;27.57;51.33;99918.53;2022285;80;20584;-79
2021/07/17 13:01:30;;;;;;;9.75;8.63;;;;;;;27.38;51.28;99922.41;2021191;77;24006;-80
2021/07/17 13:04:33;;;;;;;8.70;7.88;;;;;;;27.26;51.22;99925.00;2022508;80;20449;-81
2021/07/17 13:07:36;;;;;;;9.63;8.51;;;;;;;27.39;53.58;99912.59;2022317;80;20349;-80
2021/07/17 13:10:39;;;;;;;8.95;8.07;;;;;;;27.64;52.60;99912.69;2022383;80;20276;-81
2021/07/17 13:13:48;;;;;;;9.06;7.90;;;;;;;27.62;51.61;99908.38;2021862;80;20197;-81
2021/07/17 13:16:52;;;;;;;11.36;8.36;;;;;;;27.33;53.08;99913.00;2021510;77;22655;-81
2021/07/17 13:20:05;;;;;;;10.34;8.57;;;;;;;27.34;52.29;99902.22;2022312;80;20167;-78
2021/07/17 13:23:07;;;;;;;9.07;7.97;;;;;;;27.60;54.17;99902.31;2021632;80;20182;-80
2021/07/17 13:26:28;;;;;;;10.96;8.30;;;;;;;27.84;53.58;99905.19;2021942;80;20199;-80
2021/07/17 13:29:32;;;;;;;10.35;8.82;;;;;;;27.54;51.26;99902.72;2021996;80;20167;-78
2021/07/17 13:32:39;;;;;;;10.06;9.10;;;;;;;27.33;51.86;99905.00;2020668;77;63382;-79
2021/07/17 13:35:42;;;;;;;10.40;9.40;;;;;;;27.40;52.85;99898.28;2022204;80;20992;-79
2021/07/17 13:38:45;;;;;;;11.96;10.35;;;;;;;27.41;52.54;99902.66;2022646;80;20187;-80
2021/07/17 13:41:47;;;;;;;13.54;9.77;;;;;;;27.35;51.08;99903.09;2022256;80;20183;-81
2021/07/17 13:45:11;;;;;;;12.66;10.49;;;;;;;27.48;52.47;99898.66;2022907;80;20216;-82
2021/07/17 13:48:14;;;;;;;12.02;10.04;;;;;;;27.83;53.46;99906.13;2018083;78;23623;-79
2021/07/17 13:51:17;;;;;;;11.36;9.10;;;;;;;27.89;51.90;99895.91;2017349;80;20286;-79
2021/07/17 13:54:20;;;;;;;10.85;9.31;;;;;;;28.06;52.24;99897.44;2017862;80;20172;-82
2021/07/17 13:57:23;;;;;;;11.88;9.48;;;;;;;28.25;51.69;99891.66;2018036;80;20184;-80
2021/07/17 14:00:25;;;;;;;11.43;9.82;;;;;;;28.24;51.07;99890.81;2016794;77;20557;-82
2021/07/17 14:03:32;;;;;;;13.79;10.86;;;;;;;28.29;51.43;99894.03;2019994;80;20171;-76
2021/07/17 14:06:35;;;;;;;12.43;10.39;;;;;;;28.08;51.60;99894.66;2022602;79;20895;-76
2021/07/17 14:09:46;;;;;;;14.09;10.51;;;;;;;28.08;50.67;99881.31;2021962;80;20559;-77
2021/07/17 14:12:49;;;;;;;11.86;10.66;;;;;;;28.16;51.37;99874.44;2022064;80;20187;-77
2021/07/17 14:15:51;;;;;;;14.00;10.91;;;;;;;27.87;50.73;99878.28;2022455;77;22870;-77
2021/07/17 14:18:54;;;;;;;13.40;10.94;;;;;;;27.73;52.32;99873.03;2022517;80;20204;-77
2021/07/17 14:21:57;;;;;;;13.79;12.13;;;;;;;27.64;51.92;99872.66;2021844;80;20187;-76
2021/07/17 14:25:00;;;;;;;14.70;12.54;;;;;;;27.73;54.18;99873.03;2022473;80;20707;-76
2021/07/17 14:28:04;;;;;;;15.88;12.74;;;;;;;27.78;53.40;99860.22;2022417;80;20263;-77
2021/07/17 14:31:08;;;;;;;15.24;12.82;;;;;;;27.88;52.72;99856.81;2019022;77;26817;-76